Time;durP1;ratioP1;P1;durP2;ratioP2;P2;SDS_P1;SDS_P2;PMS_P1;PMS_P2;Temp;Humidity;BMP_temperature;BMP_pressure;BME280_temperature;BME280_humidity;BME280_pressure;Samples;Min_cycle;Max_cycle;Signal;HPM_P1;HPM_P2
2022/07/28 00:02:04;;;;;;;2.47;1.40;;;;;;;;;;5011245;28;20845;-80
2022/07/28 00:04:31;;;;;;;2.00;1.20;;;;;;;;;;5011449;28;20480;-80
2022/07/28 00:06:57;;;;;;;2.30;1.27;;;;;;;;;;5012156;28;20401;-80
2022/07/28 00:09:23;;;;;;;4.43;1.30;;;;;;;;;;5011147;28;20421;-80
2022/07/28 00:11:49;;;;;;;2.20;1.50;;;;;;;;;;5011464;28;20455;-80
2022/07/28 00:14:15;;;;;;;2.53;1.27;;;;;;;;;;5012732;28;20445;-80
2022/07/28 00:16:41;;;;;;;3.30;1.43;;;;;;;;;;5010989;28;20422;-80
2022/07/28 00:19:08;;;;;;;3.20;1.40;;;;;;;;;;5011531;28;20917;-80
2022/07/28 00:21:34;;;;;;;1.40;1.20;;;;;;;;;;5012833;28;20496;-80
2022/07/28 00:24:00;;;;;;;1.37;1.10;;;;;;;;;;5013497;28;20402;-80
2022/07/28 00:26:26;;;;;;;3.03;1.30;;;;;;;;;;5011563;28;20471;-80
2022/07/28 00:28:52;;;;;;;1.60;1.20;;;;;;;;;;5010594;28;20425;-80
2022/07/28 00:31:18;;;;;;;11.03;1.50;;;;;;;;;;5010997;28;20430;-80
2022/07/28 00:33:44;;;;;;;1.37;1.20;;;;;;;;;;5011278;28;20414;-80
2022/07/28 00:36:10;;;;;;;4.47;1.40;;;;;;;;;;5011116;28;20417;-80
2022/07/28 00:38:36;;;;;;;1.97;1.50;;;;;;;;;;5011990;28;20409;-80
2022/07/28 00:41:18;;;;;;;2.90;1.10;;;;;;;;;;5012556;28;21128;-80
2022/07/28 00:43:46;;;;;;;2.93;1.10;;;;;;;;;;5012406;28;20448;-80
2022/07/28 00:46:12;;;;;;;4.67;1.30;;;;;;;;;;5011052;28;20418;-80
2022/07/28 00:48:39;;;;;;;1.87;1.77;;;;;;;;;;5011094;28;20429;-81
2022/07/28 00:51:07;;;;;;;2.30;1.03;;;;;;;;;;5012184;28;20440;-81
2022/07/28 00:53:33;;;;;;;2.20;1.17;;;;;;;;;;5012324;28;20428;-81
2022/07/28 00:56:00;;;;;;;2.53;1.40;;;;;;;;;;5013101;28;20557;-83
2022/07/28 00:58:26;;;;;;;4.40;1.40;;;;;;;;;;5013206;28;20894;-82
2022/07/28 01:00:52;;;;;;;2.10;1.43;;;;;;;;;;5013422;28;20469;-80
2022/07/28 01:03:19;;;;;;;2.30;1.10;;;;;;;;;;5011657;28;20508;-82
2022/07/28 01:05:45;;;;;;;1.50;1.30;;;;;;;;;;5013488;28;20426;-81
2022/07/28 01:08:24;;;;;;;12.73;1.23;;;;;;;;;;5011726;28;20413;-80
2022/07/28 01:10:57;;;;;;;1.80;1.37;;;;;;;;;;5012988;28;20441;-81
2022/07/28 01:13:32;;;;;;;6.23;1.10;;;;;;;;;;5014518;28;20425;-80
2022/07/28 01:16:01;;;;;;;1.50;1.40;;;;;;;;;;5011070;28;20420;-80
2022/07/28 01:18:32;;;;;;;2.63;1.20;;;;;;;;;;5010374;28;20434;-82
2022/07/28 01:21:03;;;;;;;1.87;1.17;;;;;;;;;;5012701;28;20476;-81
2022/07/28 01:23:32;;;;;;;2.43;1.40;;;;;;;;;;5014462;28;20418;-82
2022/07/28 01:26:17;;;;;;;2.90;1.30;;;;;;;;;;5014529;28;20425;-82
2022/07/28 01:28:55;;;;;;;4.00;1.33;;;;;;;;;;5014293;28;20564;-80
2022/07/28 01:31:22;;;;;;;1.90;1.37;;;;;;;;;;5016144;28;20458;-81
2022/07/28 01:33:50;;;;;;;1.83;1.60;;;;;;;;;;5015017;28;20943;-79
2022/07/28 01:36:25;;;;;;;2.23;1.30;;;;;;;;;;5015994;28;20406;-82
2022/07/28 01:38:51;;;;;;;3.50;1.43;;;;;;;;;;5014037;28;20778;-80
2022/07/28 01:41:19;;;;;;;3.10;1.37;;;;;;;;;;5015646;28;20470;-80
2022/07/28 01:43:47;;;;;;;2.87;1.83;;;;;;;;;;5014739;28;20425;-80
2022/07/28 01:46:14;;;;;;;4.37;1.73;;;;;;;;;;5014599;28;20420;-82
2022/07/28 01:48:41;;;;;;;2.23;1.50;;;;;;;;;;5014137;28;20417;-82
2022/07/28 01:51:08;;;;;;;1.73;1.10;;;;;;;;;;5014767;28;21096;-82
2022/07/28 01:53:36;;;;;;;4.97;1.17;;;;;;;;;;5014881;28;20434;-82
2022/07/28 01:56:03;;;;;;;2.33;0.93;;;;;;;;;;5015424;28;20425;-82
2022/07/28 01:58:30;;;;;;;1.73;1.10;;;;;;;;;;5014165;28;20422;-82
2022/07/28 02:00:57;;;;;;;6.43;2.00;;;;;;;;;;5014630;28;20465;-80
2022/07/28 02:03:25;;;;;;;5.23;1.20;;;;;;;;;;5015923;28;20420;-82
2022/07/28 02:05:53;;;;;;;2.90;1.40;;;;;;;;;;5014790;28;20421;-83
2022/07/28 02:08:20;;;;;;;1.10;1.00;;;;;;;;;;5014212;28;20445;-83
2022/07/28 02:11:38;;;;;;;6.90;1.17;;;;;;;;;;5014476;28;21038;-81
2022/07/28 02:13:35;;;;;;;2.27;1.10;;;;;;;;;;5014380;28;20436;-80
2022/07/28 02:16:03;;;;;;;2.53;1.10;;;;;;;;;;5015518;28;20421;-82
2022/07/28 02:18:29;;;;;;;2.60;1.10;;;;;;;;;;5014165;28;20456;-81
2022/07/28 02:20:55;;;;;;;1.63;1.23;;;;;;;;;;5015602;28;20464;-82
2022/07/28 02:23:22;;;;;;;2.07;1.03;;;;;;;;;;5014191;28;20422;-83
2022/07/28 02:25:48;;;;;;;2.47;1.20;;;;;;;;;;5014145;28;20507;-82
2022/07/28 02:28:16;;;;;;;2.27;1.10;;;;;;;;;;5014668;28;20928;-82
2022/07/28 02:30:57;;;;;;;5.73;1.30;;;;;;;;;;5014288;28;20445;-82
2022/07/28 02:33:24;;;;;;;2.40;1.00;;;;;;;;;;5013564;28;20440;-81
2022/07/28 02:35:55;;;;;;;1.63;1.40;;;;;;;;;;5014612;28;20540;-81
2022/07/28 02:38:39;;;;;;;1.30;1.17;;;;;;;;;;5013963;28;20505;-83
2022/07/28 02:41:10;;;;;;;2.03;1.20;;;;;;;;;;5015511;28;20464;-81
2022/07/28 02:43:38;;;;;;;1.93;0.93;;;;;;;;;;5015574;28;20422;-81
2022/07/28 02:46:06;;;;;;;2.20;1.53;;;;;;;;;;5018404;28;20467;-80
2022/07/28 02:48:35;;;;;;;1.57;1.30;;;;;;;;;;5024733;28;20432;-80
2022/07/28 02:51:02;;;;;;;1.70;1.20;;;;;;;;;;5026095;28;20949;-81
2022/07/28 02:53:28;;;;;;;4.37;1.60;;;;;;;;;;5025848;28;20431;-80
2022/07/28 02:55:55;;;;;;;1.60;1.30;;;;;;;;;;5027202;28;20431;-81
2022/07/28 02:58:22;;;;;;;3.40;1.30;;;;;;;;;;5023384;28;20437;-80
2022/07/28 03:00:49;;;;;;;2.07;1.03;;;;;;;;;;5018653;28;20823;-81
2022/07/28 03:03:18;;;;;;;1.50;1.13;;;;;;;;;;5014103;28;20421;-81
2022/07/28 03:05:44;;;;;;;2.70;1.50;;;;;;;;;;5012553;28;20410;-82
2022/07/28 03:08:11;;;;;;;2.07;1.50;;;;;;;;;;5012327;28;20545;-81
2022/07/28 03:10:37;;;;;;;1.97;1.20;;;;;;;;;;5013717;28;20449;-81
2022/07/28 03:13:05;;;;;;;1.40;1.30;;;;;;;;;;5013662;28;21221;-81
2022/07/28 03:15:32;;;;;;;1.40;1.10;;;;;;;;;;5012411;28;20422;-81
2022/07/28 03:17:58;;;;;;;1.83;1.10;;;;;;;;;;5013860;28;20548;-82
2022/07/28 03:20:24;;;;;;;2.50;1.33;;;;;;;;;;5012289;28;20473;-81
2022/07/28 03:22:50;;;;;;;2.53;1.23;;;;;;;;;;5012749;28;20425;-81
2022/07/28 03:25:28;;;;;;;2.20;1.27;;;;;;;;;;5012325;28;20413;-81
2022/07/28 03:27:55;;;;;;;4.30;1.30;;;;;;;;;;5011546;28;20492;-81
2022/07/28 03:30:24;;;;;;;6.43;1.43;;;;;;;;;;5012128;28;20437;-81
2022/07/28 03:32:54;;;;;;;1.80;1.20;;;;;;;;;;5012337;28;20479;-80
2022/07/28 03:35:20;;;;;;;2.53;1.20;;;;;;;;;;5012272;28;20875;-80
2022/07/28 03:37:55;;;;;;;1.30;1.10;;;;;;;;;;5011400;28;20422;-81
2022/07/28 03:40:24;;;;;;;4.00;1.30;;;;;;;;;;5012104;28;20468;-82
2022/07/28 03:42:51;;;;;;;1.80;0.90;;;;;;;;;;5011912;28;20537;-81
2022/07/28 03:45:17;;;;;;;2.23;1.27;;;;;;;;;;5011871;28;20870;-81
2022/07/28 03:47:56;;;;;;;2.03;1.30;;;;;;;;;;5011518;28;20504;-81
2022/07/28 03:50:23;;;;;;;1.63;1.20;;;;;;;;;;5013394;28;20817;-81
2022/07/28 03:52:49;;;;;;;1.70;1.10;;;;;;;;;;5011949;28;20421;-81
2022/07/28 03:55:15;;;;;;;3.87;1.20;;;;;;;;;;5011848;28;20598;-81
2022/07/28 03:57:41;;;;;;;1.70;1.00;;;;;;;;;;5011159;28;20925;-81
2022/07/28 04:00:08;;;;;;;2.10;1.07;;;;;;;;;;5011645;28;20917;-81
2022/07/28 04:02:34;;;;;;;1.77;1.30;;;;;;;;;;4992045;28;20472;-82
2022/07/28 04:05:00;;;;;;;1.20;1.10;;;;;;;;;;4994279;28;20407;-81
2022/07/28 04:07:26;;;;;;;2.37;1.30;;;;;;;;;;4991693;28;20414;-82
2022/07/28 04:09:52;;;;;;;3.87;1.30;;;;;;;;;;4997051;28;20422;-81
2022/07/28 04:12:18;;;;;;;1.33;1.10;;;;;;;;;;5011483;28;20420;-81
2022/07/28 04:14:44;;;;;;;2.20;1.47;;;;;;;;;;5011661;28;20512;-82
2022/07/28 04:17:10;;;;;;;2.87;1.40;;;;;;;;;;5011278;28;20504;-81
2022/07/28 04:19:36;;;;;;;5.20;1.30;;;;;;;;;;5012561;28;20457;-81
2022/07/28 04:22:02;;;;;;;1.20;1.10;;;;;;;;;;5012573;28;20449;-83
2022/07/28 04:24:28;;;;;;;1.80;1.17;;;;;;;;;;5011356;28;20449;-82
2022/07/28 04:26:54;;;;;;;1.10;1.00;;;;;;;;;;5012248;28;20441;-81
2022/07/28 04:29:21;;;;;;;1.37;1.27;;;;;;;;;;5013446;28;20500;-82
2022/07/28 04:31:47;;;;;;;1.60;1.03;;;;;;;;;;5012579;28;20954;-82
2022/07/28 04:34:13;;;;;;;2.70;1.17;;;;;;;;;;5011779;28;20917;-81
2022/07/28 04:36:42;;;;;;;1.50;0.87;;;;;;;;;;5013012;28;20797;-82
2022/07/28 04:39:09;;;;;;;2.40;1.20;;;;;;;;;;5013054;28;20465;-82
2022/07/28 04:41:36;;;;;;;2.30;1.10;;;;;;;;;;5012546;28;20448;-81
2022/07/28 04:44:02;;;;;;;1.60;1.30;;;;;;;;;;5011728;28;20521;-81
2022/07/28 04:46:28;;;;;;;2.73;1.40;;;;;;;;;;5012576;28;20446;-84
2022/07/28 04:48:54;;;;;;;1.87;1.30;;;;;;;;;;5012167;28;20465;-81
2022/07/28 04:51:22;;;;;;;3.60;1.20;;;;;;;;;;5011073;28;20429;-81
2022/07/28 04:53:48;;;;;;;1.30;1.20;;;;;;;;;;5010808;28;20493;-81
2022/07/28 04:56:14;;;;;;;1.40;1.20;;;;;;;;;;5013524;28;20428;-82
2022/07/28 04:58:40;;;;;;;3.00;1.30;;;;;;;;;;5014427;28;20433;-81
2022/07/28 05:01:06;;;;;;;7.43;1.50;;;;;;;;;;5015973;28;20478;-82
2022/07/28 05:03:32;;;;;;;2.17;1.17;;;;;;;;;;5014909;28;20766;-80
2022/07/28 05:05:58;;;;;;;1.20;1.10;;;;;;;;;;5014796;28;20411;-81
2022/07/28 05:08:24;;;;;;;1.93;1.20;;;;;;;;;;5014570;28;21094;-81
2022/07/28 05:10:50;;;;;;;3.33;1.30;;;;;;;;;;5014960;28;21090;-81
2022/07/28 05:13:16;;;;;;;1.20;1.10;;;;;;;;;;5015408;28;20445;-82
2022/07/28 05:15:42;;;;;;;3.27;1.20;;;;;;;;;;5015318;28;20417;-80
2022/07/28 05:18:08;;;;;;;2.53;1.10;;;;;;;;;;5014247;28;20429;-82
2022/07/28 05:20:34;;;;;;;4.10;1.67;;;;;;;;;;5016135;28;20476;-81
2022/07/28 05:23:02;;;;;;;3.93;1.20;;;;;;;;;;5015012;28;20433;-81
2022/07/28 05:25:28;;;;;;;3.40;1.40;;;;;;;;;;5014722;28;20421;-82
2022/07/28 05:27:54;;;;;;;1.83;1.10;;;;;;;;;;5014880;28;20413;-81
2022/07/28 05:30:21;;;;;;;3.87;1.10;;;;;;;;;;5015659;28;20448;-82
2022/07/28 05:32:48;;;;;;;3.13;1.10;;;;;;;;;;5014409;28;20433;-82
2022/07/28 05:35:14;;;;;;;9.80;1.40;;;;;;;;;;5014677;28;20436;-81
2022/07/28 05:37:40;;;;;;;2.53;1.20;;;;;;;;;;5014215;28;20425;-81
2022/07/28 05:40:12;;;;;;;4.87;1.07;;;;;;;;;;5014531;28;21008;-82
2022/07/28 05:42:39;;;;;;;5.10;1.30;;;;;;;;;;5016169;28;20412;-83
2022/07/28 05:45:07;;;;;;;2.23;1.20;;;;;;;;;;5015938;28;20485;-83
2022/07/28 05:47:40;;;;;;;1.53;1.30;;;;;;;;;;5013851;28;20422;-83
2022/07/28 05:50:06;;;;;;;1.30;1.17;;;;;;;;;;5016407;28;20499;-82
2022/07/28 05:52:33;;;;;;;3.23;1.33;;;;;;;;;;5014467;28;20412;-83
2022/07/28 05:54:59;;;;;;;1.50;1.03;;;;;;;;;;5014866;28;20422;-83
2022/07/28 05:57:25;;;;;;;4.00;1.10;;;;;;;;;;5014085;28;20941;-82
2022/07/28 05:59:51;;;;;;;1.40;1.00;;;;;;;;;;5015852;28;20468;-81
2022/07/28 06:02:17;;;;;;;8.40;1.93;;;;;;;;;;5015230;28;20421;-82
2022/07/28 06:04:43;;;;;;;1.70;1.60;;;;;;;;;;5014843;28;20807;-80
2022/07/28 06:07:09;;;;;;;6.47;1.90;;;;;;;;;;5014614;28;20476;-79
2022/07/28 06:09:35;;;;;;;9.27;1.57;;;;;;;;;;5017280;28;20803;-79
2022/07/28 06:12:01;;;;;;;4.83;2.37;;;;;;;;;;5015696;28;20971;-80
2022/07/28 06:14:27;;;;;;;4.23;1.77;;;;;;;;;;5019385;28;20782;-80
2022/07/28 06:16:53;;;;;;;4.00;1.70;;;;;;;;;;5022253;28;20414;-79
2022/07/28 06:19:19;;;;;;;9.83;2.17;;;;;;;;;;5016401;28;20495;-79
2022/07/28 06:21:46;;;;;;;4.63;1.87;;;;;;;;;;5014857;28;20449;-79
2022/07/28 06:24:12;;;;;;;4.17;1.70;;;;;;;;;;5013509;28;20505;-79
2022/07/28 06:26:38;;;;;;;3.03;1.60;;;;;;;;;;5014864;28;20406;-79
2022/07/28 06:29:05;;;;;;;3.57;1.73;;;;;;;;;;5015147;28;20413;-80
2022/07/28 06:31:32;;;;;;;3.10;1.60;;;;;;;;;;5032790;28;20429;-79
2022/07/28 06:33:58;;;;;;;5.77;2.10;;;;;;;;;;5033299;28;20397;-81
2022/07/28 06:36:24;;;;;;;3.37;1.60;;;;;;;;;;5032949;28;20413;-79
2022/07/28 06:38:51;;;;;;;7.57;1.60;;;;;;;;;;5021406;28;20436;-81
2022/07/28 06:41:17;;;;;;;6.27;2.30;;;;;;;;;;5014087;28;21052;-82
2022/07/28 06:43:43;;;;;;;2.63;2.23;;;;;;;;;;5015901;28;20796;-80
2022/07/28 06:46:09;;;;;;;3.23;1.50;;;;;;;;;;5016154;28;20428;-79
2022/07/28 06:48:38;;;;;;;5.90;1.70;;;;;;;;;;5013131;28;20464;-79
2022/07/28 06:51:04;;;;;;;4.00;2.10;;;;;;;;;;5014722;28;20433;-78
2022/07/28 06:53:31;;;;;;;4.67;3.40;;;;;;;;;;5015273;28;20679;-79
2022/07/28 06:55:57;;;;;;;5.15;1.80;;;;;;;;;;5025819;28;20933;-78
2022/07/28 06:58:23;;;;;;;5.43;2.20;;;;;;;;;;5018458;28;20575;-78
2022/07/28 07:00:49;;;;;;;5.93;1.40;;;;;;;;;;5016682;28;20465;-78
2022/07/28 07:03:15;;;;;;;4.20;1.90;;;;;;;;;;5019308;28;20409;-78
2022/07/28 07:05:41;;;;;;;5.57;2.17;;;;;;;;;;5017120;28;20456;-79
2022/07/28 07:08:07;;;;;;;4.77;2.10;;;;;;;;;;5015676;28;20433;-78
2022/07/28 07:10:34;;;;;;;7.20;1.80;;;;;;;;;;5014642;28;20527;-78
2022/07/28 07:13:01;;;;;;;4.60;1.70;;;;;;;;;;5013852;28;20548;-78
2022/07/28 07:15:27;;;;;;;5.47;1.80;;;;;;;;;;5014501;28;20782;-78
2022/07/28 07:17:53;;;;;;;4.43;1.70;;;;;;;;;;5030725;28;20424;-78
2022/07/28 07:20:19;;;;;;;5.53;1.63;;;;;;;;;;5012886;28;20480;-78
2022/07/28 07:22:46;;;;;;;4.30;1.90;;;;;;;;;;5018639;28;20421;-79
2022/07/28 07:25:15;;;;;;;6.63;2.00;;;;;;;;;;5012675;28;20525;-77
2022/07/28 07:27:41;;;;;;;5.80;1.97;;;;;;;;;;5013891;28;20501;-79
2022/07/28 07:30:08;;;;;;;4.20;2.30;;;;;;;;;;5014634;28;20421;-78
2022/07/28 07:32:34;;;;;;;5.20;1.87;;;;;;;;;;5013938;28;20413;-78
2022/07/28 07:35:00;;;;;;;4.80;2.53;;;;;;;;;;5012943;28;20413;-77
2022/07/28 07:37:26;;;;;;;5.60;1.50;;;;;;;;;;5012632;28;20468;-77
2022/07/28 07:39:52;;;;;;;5.13;1.63;;;;;;;;;;5011245;28;21125;-78
2022/07/28 07:42:18;;;;;;;4.80;2.17;;;;;;;;;;5020125;28;20428;-77
2022/07/28 07:44:44;;;;;;;3.47;1.90;;;;;;;;;;5012608;28;20456;-77
2022/07/28 07:47:10;;;;;;;7.33;1.97;;;;;;;;;;5021000;28;20874;-76
2022/07/28 07:49:39;;;;;;;3.77;2.20;;;;;;;;;;5015476;28;20456;-77
2022/07/28 07:52:06;;;;;;;10.10;1.70;;;;;;;;;;5012621;28;20464;-79
2022/07/28 07:54:32;;;;;;;5.87;2.27;;;;;;;;;;5031149;28;20416;-78
2022/07/28 07:56:58;;;;;;;3.77;2.13;;;;;;;;;;5023047;28;20527;-77
2022/07/28 07:59:24;;;;;;;4.33;2.00;;;;;;;;;;5012584;28;20863;-78
2022/07/28 08:01:53;;;;;;;7.27;3.40;;;;;;;;;;5012779;28;20429;-78
2022/07/28 08:04:20;;;;;;;4.00;1.90;;;;;;;;;;5002391;28;20509;-78
2022/07/28 08:06:47;;;;;;;4.70;1.77;;;;;;;;;;5000312;28;20418;-77
2022/07/28 08:09:13;;;;;;;2.97;1.97;;;;;;;;;;5027938;28;20429;-81
2022/07/28 08:11:39;;;;;;;5.43;1.90;;;;;;;;;;5013948;28;20456;-80
2022/07/28 08:14:05;;;;;;;4.30;1.63;;;;;;;;;;5014962;28;20418;-77
2022/07/28 08:16:31;;;;;;;1.90;1.63;;;;;;;;;;5014548;28;20529;-79
2022/07/28 08:18:57;;;;;;;2.90;1.70;;;;;;;;;;5015719;28;20465;-77
2022/07/28 08:21:24;;;;;;;5.83;2.03;;;;;;;;;;5001695;28;20461;-79
2022/07/28 08:23:50;;;;;;;4.10;1.50;;;;;;;;;;5014961;28;20789;-77
2022/07/28 08:26:16;;;;;;;3.60;2.00;;;;;;;;;;5017441;28;20518;-78
2022/07/28 08:28:43;;;;;;;4.73;2.03;;;;;;;;;;5040115;28;20412;-80
2022/07/28 08:31:09;;;;;;;7.53;2.10;;;;;;;;;;5032814;28;20505;-83
2022/07/28 08:33:35;;;;;;;3.97;2.30;;;;;;;;;;5014215;28;20458;-78
2022/07/28 08:36:01;;;;;;;3.30;2.27;;;;;;;;;;5028727;28;20436;-79
2022/07/28 08:38:27;;;;;;;6.90;2.60;;;;;;;;;;5023847;28;20440;-79
2022/07/28 08:40:56;;;;;;;10.23;2.20;;;;;;;;;;5016115;28;20477;-78
2022/07/28 08:43:25;;;;;;;4.17;1.80;;;;;;;;;;5026949;28;20933;-77
2022/07/28 08:45:51;;;;;;;4.47;1.80;;;;;;;;;;5014263;28;20464;-77
2022/07/28 08:48:19;;;;;;;3.87;1.93;;;;;;;;;;5010772;28;20934;-78
2022/07/28 08:50:46;;;;;;;3.43;1.63;;;;;;;;;;5013037;28;20443;-77
2022/07/28 08:53:14;;;;;;;4.47;2.10;;;;;;;;;;5012120;28;20509;-78
2022/07/28 08:55:40;;;;;;;3.70;2.03;;;;;;;;;;5013046;28;20421;-77
2022/07/28 08:58:06;;;;;;;7.30;2.30;;;;;;;;;;5012036;28;20422;-77
2022/07/28 09:00:33;;;;;;;3.00;1.90;;;;;;;;;;5013295;28;20501;-77
2022/07/28 09:02:59;;;;;;;12.00;2.00;;;;;;;;;;5014017;28;20807;-77
2022/07/28 09:05:25;;;;;;;5.80;1.70;;;;;;;;;;5013144;28;20491;-78
2022/07/28 09:07:53;;;;;;;4.60;2.10;;;;;;;;;;5013150;28;20409;-78
2022/07/28 09:10:19;;;;;;;7.50;2.27;;;;;;;;;;5013646;28;20437;-77
2022/07/28 09:12:46;;;;;;;4.03;1.90;;;;;;;;;;5013608;28;20390;-77
2022/07/28 09:15:12;;;;;;;5.23;2.27;;;;;;;;;;5013369;28;20424;-77
2022/07/28 09:17:39;;;;;;;3.30;2.03;;;;;;;;;;5014177;28;20417;-78
2022/07/28 09:20:06;;;;;;;4.50;2.40;;;;;;;;;;5013447;28;20863;-78
2022/07/28 09:22:32;;;;;;;2.63;1.70;;;;;;;;;;5013319;28;20468;-77
2022/07/28 09:25:01;;;;;;;5.17;2.00;;;;;;;;;;5014751;28;20906;-77
2022/07/28 09:27:27;;;;;;;5.70;2.27;;;;;;;;;;5014303;28;20865;-78
2022/07/28 09:30:00;;;;;;;4.17;2.10;;;;;;;;;;5013715;28;20513;-78
2022/07/28 09:32:26;;;;;;;5.10;1.67;;;;;;;;;;5010061;28;20887;-77
2022/07/28 09:34:52;;;;;;;6.33;3.27;;;;;;;;;;4994740;28;20453;-77
2022/07/28 09:37:19;;;;;;;4.83;2.20;;;;;;;;;;4994584;28;20426;-77
2022/07/28 09:39:46;;;;;;;2.80;1.90;;;;;;;;;;4994175;28;20492;-78
2022/07/28 09:42:12;;;;;;;1.90;1.57;;;;;;;;;;5011155;28;20782;-77
2022/07/28 09:44:38;;;;;;;5.73;1.70;;;;;;;;;;5012507;28;20418;-77
2022/07/28 09:47:23;;;;;;;2.80;1.70;;;;;;;;;;5011870;28;20433;-78
2022/07/28 09:49:50;;;;;;;3.00;1.80;;;;;;;;;;4996985;28;20406;-78
2022/07/28 09:52:34;;;;;;;1.97;1.50;;;;;;;;;;5012344;28;20567;-78
2022/07/28 09:55:07;;;;;;;3.57;1.63;;;;;;;;;;5012358;28;20426;-77
2022/07/28 09:57:34;;;;;;;2.63;1.53;;;;;;;;;;4997050;28;20422;-78
2022/07/28 10:00:00;;;;;;;3.17;1.70;;;;;;;;;;5027574;28;20510;-78
2022/07/28 10:02:28;;;;;;;3.60;1.70;;;;;;;;;;5015666;28;20432;-78
2022/07/28 10:04:54;;;;;;;7.43;1.77;;;;;;;;;;5016264;28;20438;-79
2022/07/28 10:07:21;;;;;;;6.30;1.60;;;;;;;;;;5022594;28;20413;-78
2022/07/28 10:09:59;;;;;;;7.30;1.60;;;;;;;;;;5017297;28;20853;-78
2022/07/28 10:12:26;;;;;;;2.03;1.40;;;;;;;;;;5016259;28;20410;-78
2022/07/28 10:14:54;;;;;;;3.73;1.93;;;;;;;;;;5017996;28;20428;-78
2022/07/28 10:17:30;;;;;;;3.47;1.70;;;;;;;;;;5018950;28;20417;-78
2022/07/28 10:19:57;;;;;;;4.87;1.87;;;;;;;;;;5017827;28;20522;-77
2022/07/28 10:22:25;;;;;;;2.83;1.70;;;;;;;;;;5017838;28;20426;-77
2022/07/28 10:24:52;;;;;;;11.10;1.53;;;;;;;;;;5014115;28;20409;-77
2022/07/28 10:27:23;;;;;;;3.33;1.87;;;;;;;;;;5013474;28;20602;-76
2022/07/28 10:29:54;;;;;;;4.77;1.50;;;;;;;;;;5014789;28;20410;-78
2022/07/28 10:32:20;;;;;;;6.70;2.37;;;;;;;;;;5017671;28;20422;-76
2022/07/28 10:34:50;;;;;;;3.87;1.50;;;;;;;;;;5017756;28;20418;-77
2022/07/28 10:37:22;;;;;;;6.30;3.10;;;;;;;;;;5017071;28;20421;-76
2022/07/28 10:39:53;;;;;;;2.23;1.50;;;;;;;;;;5018205;28;20985;-76
2022/07/28 10:42:19;;;;;;;3.90;1.50;;;;;;;;;;5017910;28;20741;-76
2022/07/28 10:44:46;;;;;;;3.77;1.20;;;;;;;;;;5016922;28;20414;-77
2022/07/28 10:47:12;;;;;;;3.50;1.53;;;;;;;;;;5016253;28;20413;-77
2022/07/28 10:49:41;;;;;;;2.83;1.80;;;;;;;;;;5017712;28;20453;-77
2022/07/28 10:52:07;;;;;;;3.10;1.47;;;;;;;;;;5017240;28;21008;-77
2022/07/28 10:54:42;;;;;;;3.87;1.37;;;;;;;;;;5014772;28;20428;-78
2022/07/28 10:57:10;;;;;;;2.20;1.37;;;;;;;;;;5017273;28;20394;-77
2022/07/28 10:59:55;;;;;;;2.77;1.30;;;;;;;;;;5016535;28;20453;-77
2022/07/28 11:02:50;;;;;;;4.53;1.50;;;;;;;;;;5018666;28;20414;-76
2022/07/28 11:05:26;;;;;;;4.97;1.80;;;;;;;;;;4983621;28;20419;-76
2022/07/28 11:07:53;;;;;;;3.63;1.63;;;;;;;;;;5017599;28;20921;-76
2022/07/28 11:10:20;;;;;;;4.23;1.73;;;;;;;;;;5034321;28;20469;-76
2022/07/28 11:12:50;;;;;;;2.30;1.77;;;;;;;;;;5016859;28;20427;-77
2022/07/28 11:15:26;;;;;;;2.07;1.53;;;;;;;;;;5018353;28;20475;-77
2022/07/28 11:18:03;;;;;;;7.40;1.57;;;;;;;;;;5014059;28;20410;-78
2022/07/28 11:20:48;;;;;;;3.00;1.20;;;;;;;;;;5013964;28;20645;-78
2022/07/28 11:23:33;;;;;;;2.33;1.40;;;;;;;;;;5013053;28;20441;-78
2022/07/28 11:26:18;;;;;;;1.83;1.43;;;;;;;;;;5012925;28;20416;-78
2022/07/28 11:28:59;;;;;;;3.50;1.63;;;;;;;;;;5011993;28;20406;-79
2022/07/28 11:31:46;;;;;;;4.70;1.93;;;;;;;;;;5012508;28;20485;-78
2022/07/28 11:34:22;;;;;;;7.27;1.57;;;;;;;;;;5014520;28;20417;-79
2022/07/28 11:36:58;;;;;;;4.17;1.90;;;;;;;;;;5014460;28;20437;-78
2022/07/28 11:39:25;;;;;;;4.77;1.83;;;;;;;;;;5014757;28;20845;-80
2022/07/28 11:41:51;;;;;;;7.53;1.60;;;;;;;;;;5013149;28;20464;-80
2022/07/28 11:44:27;;;;;;;2.83;1.53;;;;;;;;;;5015029;28;20493;-80
2022/07/28 11:46:53;;;;;;;2.67;1.73;;;;;;;;;;5012636;28;20437;-79
2022/07/28 11:49:21;;;;;;;4.47;1.60;;;;;;;;;;5012843;28;20450;-79
2022/07/28 11:52:10;;;;;;;4.30;2.57;;;;;;;;;;5014133;28;20456;-79
2022/07/28 11:54:37;;;;;;;4.43;1.80;;;;;;;;;;5013908;28;20406;-78
2022/07/28 11:57:03;;;;;;;4.57;1.60;;;;;;;;;;5021211;28;20397;-78
2022/07/28 11:59:50;;;;;;;5.13;1.67;;;;;;;;;;5025972;28;20457;-79
2022/07/28 12:02:16;;;;;;;4.10;1.70;;;;;;;;;;5014230;28;20488;-78
2022/07/28 12:04:43;;;;;;;3.90;1.40;;;;;;;;;;5012846;28;20413;-78
2022/07/28 12:07:09;;;;;;;2.40;1.77;;;;;;;;;;5011957;28;20425;-78
2022/07/28 12:09:36;;;;;;;4.67;1.40;;;;;;;;;;5013885;28;20769;-79
2022/07/28 12:12:03;;;;;;;3.50;1.67;;;;;;;;;;5013435;28;20468;-78
2022/07/28 12:14:29;;;;;;;3.57;1.40;;;;;;;;;;5012155;28;20407;-78
2022/07/28 12:16:55;;;;;;;3.57;1.77;;;;;;;;;;5011528;28;20858;-78
2022/07/28 12:19:22;;;;;;;3.37;1.80;;;;;;;;;;5012386;28;20428;-78
2022/07/28 12:21:52;;;;;;;3.40;1.43;;;;;;;;;;5010664;28;20497;-78
2022/07/28 12:24:27;;;;;;;6.40;1.53;;;;;;;;;;5012682;28;20469;-78
2022/07/28 12:26:53;;;;;;;3.60;1.60;;;;;;;;;;5010706;28;20454;-79
2022/07/28 12:29:20;;;;;;;11.80;1.80;;;;;;;;;;5011286;28;20413;-78
2022/07/28 12:31:54;;;;;;;3.90;1.77;;;;;;;;;;5012765;28;20473;-79
2022/07/28 12:34:20;;;;;;;2.13;2.00;;;;;;;;;;5013948;28;20976;-78
2022/07/28 12:36:46;;;;;;;5.53;1.73;;;;;;;;;;5012851;28;20418;-79
2022/07/28 12:39:12;;;;;;;3.90;1.63;;;;;;;;;;5015641;28;20405;-79
2022/07/28 12:41:38;;;;;;;4.40;1.73;;;;;;;;;;5013006;28;20536;-78
2022/07/28 12:44:05;;;;;;;2.60;1.47;;;;;;;;;;5015166;28;20444;-77
2022/07/28 12:46:32;;;;;;;6.40;2.20;;;;;;;;;;5012517;28;20422;-79
2022/07/28 12:48:59;;;;;;;6.00;2.07;;;;;;;;;;5012018;28;20765;-78
2022/07/28 12:51:39;;;;;;;2.47;1.90;;;;;;;;;;5011440;28;20464;-78
2022/07/28 12:54:08;;;;;;;3.77;2.27;;;;;;;;;;5012742;28;20409;-78
2022/07/28 12:56:44;;;;;;;4.50;2.40;;;;;;;;;;5011641;28;20421;-78
2022/07/28 12:59:12;;;;;;;10.73;2.07;;;;;;;;;;5013235;28;20513;-78
2022/07/28 13:01:44;;;;;;;4.53;3.00;;;;;;;;;;5013884;28;20448;-78
2022/07/28 13:04:10;;;;;;;7.80;3.07;;;;;;;;;;5013666;28;20406;-78
2022/07/28 13:06:36;;;;;;;6.47;2.30;;;;;;;;;;5015408;28;20429;-79
2022/07/28 13:09:02;;;;;;;6.20;2.27;;;;;;;;;;5013497;28;20417;-78
2022/07/28 13:11:29;;;;;;;3.40;2.20;;;;;;;;;;5015629;28;20439;-79
2022/07/28 13:13:55;;;;;;;3.67;1.87;;;;;;;;;;5013772;28;20417;-78
2022/07/28 13:16:28;;;;;;;4.67;2.10;;;;;;;;;;4996591;28;20481;-78
2022/07/28 13:19:01;;;;;;;2.50;2.00;;;;;;;;;;5014793;28;20479;-78
2022/07/28 13:21:40;;;;;;;4.80;2.60;;;;;;;;;;5014893;28;20481;-78
2022/07/28 13:24:10;;;;;;;6.07;2.80;;;;;;;;;;5014779;28;20478;-78
2022/07/28 13:26:40;;;;;;;2.13;1.93;;;;;;;;;;5014622;28;20421;-78
2022/07/28 13:29:07;;;;;;;2.87;2.30;;;;;;;;;;5016426;28;20409;-78
2022/07/28 13:31:36;;;;;;;3.00;1.87;;;;;;;;;;5014822;28;20439;-79
2022/07/28 13:34:06;;;;;;;4.03;1.60;;;;;;;;;;5019017;28;20421;-78
2022/07/28 13:36:33;;;;;;;4.77;1.90;;;;;;;;;;5015318;28;20481;-78
2022/07/28 13:38:59;;;;;;;4.27;1.77;;;;;;;;;;5015599;28;20468;-79
2022/07/28 13:41:25;;;;;;;3.27;2.00;;;;;;;;;;5014807;28;20465;-77
2022/07/28 13:43:53;;;;;;;7.20;1.80;;;;;;;;;;5015368;28;20448;-77
2022/07/28 13:46:19;;;;;;;3.50;1.80;;;;;;;;;;5015148;28;20413;-77
2022/07/28 13:48:45;;;;;;;4.03;2.00;;;;;;;;;;5016860;28;20443;-78
2022/07/28 13:51:12;;;;;;;12.50;3.20;;;;;;;;;;5014623;28;20441;-79
2022/07/28 13:53:39;;;;;;;6.30;2.17;;;;;;;;;;5015789;28;20410;-77
2022/07/28 13:56:05;;;;;;;1.80;1.70;;;;;;;;;;5014467;28;20934;-79
2022/07/28 13:58:31;;;;;;;2.60;1.73;;;;;;;;;;5015287;28;20425;-79
2022/07/28 14:00:58;;;;;;;9.77;1.90;;;;;;;;;;5015920;28;20504;-78
2022/07/28 14:03:24;;;;;;;2.03;1.83;;;;;;;;;;5018198;28;20420;-78
2022/07/28 14:05:50;;;;;;;2.47;2.00;;;;;;;;;;5026336;28;20437;-79
2022/07/28 14:08:19;;;;;;;4.33;1.90;;;;;;;;;;5028975;28;20417;-77
2022/07/28 14:10:46;;;;;;;8.57;1.97;;;;;;;;;;5023045;28;20442;-77
2022/07/28 14:13:12;;;;;;;1.73;1.30;;;;;;;;;;5016086;28;20422;-78
2022/07/28 14:15:39;;;;;;;4.43;1.73;;;;;;;;;;5016329;28;20838;-77
2022/07/28 14:18:05;;;;;;;5.33;1.60;;;;;;;;;;5015964;28;20804;-77
2022/07/28 14:20:31;;;;;;;5.07;1.63;;;;;;;;;;5015873;28;20475;-77
2022/07/28 14:22:57;;;;;;;5.73;1.70;;;;;;;;;;5014609;28;20780;-77
2022/07/28 14:25:26;;;;;;;3.10;2.03;;;;;;;;;;5014534;28;20410;-76
2022/07/28 14:27:54;;;;;;;2.40;1.80;;;;;;;;;;5013788;28;20405;-77
2022/07/28 14:30:20;;;;;;;1.77;1.67;;;;;;;;;;5012662;28;20444;-77
2022/07/28 14:32:47;;;;;;;5.23;1.43;;;;;;;;;;5012609;28;20414;-76
2022/07/28 14:35:13;;;;;;;6.80;1.80;;;;;;;;;;5014215;28;20413;-77
2022/07/28 14:37:39;;;;;;;2.73;1.40;;;;;;;;;;5013253;28;20921;-77
2022/07/28 14:40:05;;;;;;;4.90;1.60;;;;;;;;;;5014028;28;21017;-78
2022/07/28 14:42:31;;;;;;;4.07;2.10;;;;;;;;;;5029118;28;20420;-79
2022/07/28 14:44:58;;;;;;;2.90;1.70;;;;;;;;;;5012699;28;20883;-77
2022/07/28 14:47:27;;;;;;;4.33;1.67;;;;;;;;;;5013506;28;20464;-77
2022/07/28 14:49:53;;;;;;;5.43;1.87;;;;;;;;;;5014506;28;20475;-77